sensor_id;sensor_type;location;lat;lon;timestamp;temperature;humidity
5631;DHT22;2837;50.990;7.124;2022-07-24T05:01:42;19.70;99.90
5631;DHT22;2837;50.990;7.124;2022-07-24T05:04:08;19.70;99.90
5631;DHT22;2837;50.990;7.124;2022-07-24T05:06:33;19.70;99.90
5631;DHT22;2837;50.990;7.124;2022-07-24T05:08:59;19.70;99.90
5631;DHT22;2837;50.990;7.124;2022-07-24T05:11:24;19.80;99.90
5631;DHT22;2837;50.990;7.124;2022-07-24T05:13:50;19.80;99.90
5631;DHT22;2837;50.990;7.124;2022-07-24T05:16:16;19.80;99.90
5631;DHT22;2837;50.990;7.124;2022-07-24T05:18:41;19.80;99.90
5631;DHT22;2837;50.990;7.124;2022-07-24T05:21:07;19.90;99.90
5631;DHT22;2837;50.990;7.124;2022-07-24T05:23:33;19.90;99.90
5631;DHT22;2837;50.990;7.124;2022-07-24T05:25:58;19.90;99.90
5631;DHT22;2837;50.990;7.124;2022-07-24T05:28:24;19.90;99.90
5631;DHT22;2837;50.990;7.124;2022-07-24T05:30:50;19.90;99.90
5631;DHT22;2837;50.990;7.124;2022-07-24T05:33:15;20.00;99.90
5631;DHT22;2837;50.990;7.124;2022-07-24T05:35:41;20.00;99.90
5631;DHT22;2837;50.990;7.124;2022-07-24T05:38:07;20.10;99.90
5631;DHT22;2837;50.990;7.124;2022-07-24T05:40:32;20.10;99.90
5631;DHT22;2837;50.990;7.124;2022-07-24T05:42:58;20.10;99.90
5631;DHT22;2837;50.990;7.124;2022-07-24T05:45:24;20.10;99.90
5631;DHT22;2837;50.990;7.124;2022-07-24T05:47:49;20.20;99.90
5631;DHT22;2837;50.990;7.124;2022-07-24T05:50:15;20.20;99.90
5631;DHT22;2837;50.990;7.124;2022-07-24T05:52:41;20.20;99.90
5631;DHT22;2837;50.990;7.124;2022-07-24T05:55:08;20.30;99.90
5631;DHT22;2837;50.990;7.124;2022-07-24T05:57:33;20.30;99.90
5631;DHT22;2837;50.990;7.124;2022-07-24T05:59:59;20.30;99.90
5631;DHT22;2837;50.990;7.124;2022-07-24T06:02:25;20.40;99.90
5631;DHT22;2837;50.990;7.124;2022-07-24T06:04:50;20.40;99.90
5631;DHT22;2837;50.990;7.124;2022-07-24T06:07:16;20.40;99.90
5631;DHT22;2837;50.990;7.124;2022-07-24T06:09:42;20.40;99.90
5631;DHT22;2837;50.990;7.124;2022-07-24T06:12:08;20.40;99.90
5631;DHT22;2837;50.990;7.124;2022-07-24T06:14:34;20.40;99.90
5631;DHT22;2837;50.990;7.124;2022-07-24T06:17:00;20.40;99.90
5631;DHT22;2837;50.990;7.124;2022-07-24T06:19:26;20.40;99.90
5631;DHT22;2837;50.990;7.124;2022-07-24T06:21:51;20.40;99.90
5631;DHT22;2837;50.990;7.124;2022-07-24T06:24:17;20.40;99.90
5631;DHT22;2837;50.990;7.124;2022-07-24T06:26:43;20.40;99.90
5631;DHT22;2837;50.990;7.124;2022-07-24T06:29:08;20.40;99.90
5631;DHT22;2837;50.990;7.124;2022-07-24T06:31:34;20.40;99.90
5631;DHT22;2837;50.990;7.124;2022-07-24T06:33:59;20.50;99.90
5631;DHT22;2837;50.990;7.124;2022-07-24T06:36:25;20.50;99.90
5631;DHT22;2837;50.990;7.124;2022-07-24T06:38:50;20.50;99.90
5631;DHT22;2837;50.990;7.124;2022-07-24T06:41:16;20.50;99.90
5631;DHT22;2837;50.990;7.124;2022-07-24T06:43:42;20.50;99.90
5631;DHT22;2837;50.990;7.124;2022-07-24T06:46:08;20.50;99.90
5631;DHT22;2837;50.990;7.124;2022-07-24T06:48:33;20.50;99.90
5631;DHT22;2837;50.990;7.124;2022-07-24T06:50:59;20.50;99.90
5631;DHT22;2837;50.990;7.124;2022-07-24T06:53:24;20.50;99.90
5631;DHT22;2837;50.990;7.124;2022-07-24T06:55:50;20.60;99.90
5631;DHT22;2837;50.990;7.124;2022-07-24T06:58:19;20.60;99.90
5631;DHT22;2837;50.990;7.124;2022-07-24T07:00:45;20.60;99.90
5631;DHT22;2837;50.990;7.124;2022-07-24T07:03:11;20.60;99.90
5631;DHT22;2837;50.990;7.124;2022-07-24T07:05:36;20.60;99.90
5631;DHT22;2837;50.990;7.124;2022-07-24T07:08:02;20.60;99.90
5631;DHT22;2837;50.990;7.124;2022-07-24T07:10:28;20.60;99.90
5631;DHT22;2837;50.990;7.124;2022-07-24T07:12:53;20.60;99.90
5631;DHT22;2837;50.990;7.124;2022-07-24T07:15:19;20.70;99.90
5631;DHT22;2837;50.990;7.124;2022-07-24T07:17:45;20.70;99.90
5631;DHT22;2837;50.990;7.124;2022-07-24T07:20:11;20.70;99.90
5631;DHT22;2837;50.990;7.124;2022-07-24T07:22:38;20.70;99.90
5631;DHT22;2837;50.990;7.124;2022-07-24T07:25:05;20.70;99.90
5631;DHT22;2837;50.990;7.124;2022-07-24T07:27:31;20.70;99.90
5631;DHT22;2837;50.990;7.124;2022-07-24T07:29:56;20.70;99.90
5631;DHT22;2837;50.990;7.124;2022-07-24T07:32:22;20.70;99.90
5631;DHT22;2837;50.990;7.124;2022-07-24T07:34:47;20.70;99.90
5631;DHT22;2837;50.990;7.124;2022-07-24T07:37:13;20.70;99.90
5631;DHT22;2837;50.990;7.124;2022-07-24T07:39:39;20.80;99.90
5631;DHT22;2837;50.990;7.124;2022-07-24T07:42:04;20.80;99.90
5631;DHT22;2837;50.990;7.124;2022-07-24T07:44:30;20.80;99.90
5631;DHT22;2837;50.990;7.124;2022-07-24T07:46:56;20.80;99.90
5631;DHT22;2837;50.990;7.124;2022-07-24T07:49:21;20.80;99.90
5631;DHT22;2837;50.990;7.124;2022-07-24T07:51:47;20.80;99.90
5631;DHT22;2837;50.990;7.124;2022-07-24T07:54:17;20.80;99.90
5631;DHT22;2837;50.990;7.124;2022-07-24T07:56:42;20.80;99.90
5631;DHT22;2837;50.990;7.124;2022-07-24T07:59:08;20.90;99.90
5631;DHT22;2837;50.990;7.124;2022-07-24T08:01:34;20.90;99.90
5631;DHT22;2837;50.990;7.124;2022-07-24T08:04:00;20.90;99.90
5631;DHT22;2837;50.990;7.124;2022-07-24T08:06:25;20.90;99.90
5631;DHT22;2837;50.990;7.124;2022-07-24T08:08:51;20.90;99.90
5631;DHT22;2837;50.990;7.124;2022-07-24T08:11:17;20.90;99.90
5631;DHT22;2837;50.990;7.124;2022-07-24T08:13:42;20.90;99.90
5631;DHT22;2837;50.990;7.124;2022-07-24T08:16:08;20.90;99.90
5631;DHT22;2837;50.990;7.124;2022-07-24T08:18:33;20.90;99.90
5631;DHT22;2837;50.990;7.124;2022-07-24T08:20:59;20.90;99.90
5631;DHT22;2837;50.990;7.124;2022-07-24T08:23:25;20.90;99.90
5631;DHT22;2837;50.990;7.124;2022-07-24T08:25:50;20.90;99.90
5631;DHT22;2837;50.990;7.124;2022-07-24T08:28:16;20.90;99.90
5631;DHT22;2837;50.990;7.124;2022-07-24T08:30:42;20.90;99.90
5631;DHT22;2837;50.990;7.124;2022-07-24T08:33:08;21.00;99.90
5631;DHT22;2837;50.990;7.124;2022-07-24T08:35:33;21.00;99.90
5631;DHT22;2837;50.990;7.124;2022-07-24T08:37:59;21.00;99.90
5631;DHT22;2837;50.990;7.124;2022-07-24T08:40:26;21.00;99.90
5631;DHT22;2837;50.990;7.124;2022-07-24T08:42:54;21.00;99.90
5631;DHT22;2837;50.990;7.124;2022-07-24T08:45:19;21.00;99.90
5631;DHT22;2837;50.990;7.124;2022-07-24T08:47:45;21.00;99.90
5631;DHT22;2837;50.990;7.124;2022-07-24T08:50:11;21.00;99.90
5631;DHT22;2837;50.990;7.124;2022-07-24T08:52:38;21.00;99.90
5631;DHT22;2837;50.990;7.124;2022-07-24T08:55:04;21.00;99.90
5631;DHT22;2837;50.990;7.124;2022-07-24T08:57:30;21.00;99.90
5631;DHT22;2837;50.990;7.124;2022-07-24T08:59:56;21.00;99.90
5631;DHT22;2837;50.990;7.124;2022-07-24T09:02:21;21.00;99.90
5631;DHT22;2837;50.990;7.124;2022-07-24T09:04:48;21.10;99.90
5631;DHT22;2837;50.990;7.124;2022-07-24T09:07:17;21.10;99.90
5631;DHT22;2837;50.990;7.124;2022-07-24T09:09:58;21.10;99.90
5631;DHT22;2837;50.990;7.124;2022-07-24T09:12:24;21.10;99.90
5631;DHT22;2837;50.990;7.124;2022-07-24T09:14:50;21.10;99.90
5631;DHT22;2837;50.990;7.124;2022-07-24T09:17:20;21.10;99.90
5631;DHT22;2837;50.990;7.124;2022-07-24T09:19:54;21.10;99.90
5631;DHT22;2837;50.990;7.124;2022-07-24T09:22:25;21.10;99.90
5631;DHT22;2837;50.990;7.124;2022-07-24T09:33:05;21.20;99.90
5631;DHT22;2837;50.990;7.124;2022-07-24T09:35:33;21.20;99.90
5631;DHT22;2837;50.990;7.124;2022-07-24T09:38:01;21.20;99.90
5631;DHT22;2837;50.990;7.124;2022-07-24T09:40:54;21.20;99.90
5631;DHT22;2837;50.990;7.124;2022-07-24T09:43:28;21.20;99.90
5631;DHT22;2837;50.990;7.124;2022-07-24T09:48:21;21.20;99.90
5631;DHT22;2837;50.990;7.124;2022-07-24T09:50:53;21.30;99.90
5631;DHT22;2837;50.990;7.124;2022-07-24T09:53:20;21.30;99.90
5631;DHT22;2837;50.990;7.124;2022-07-24T09:55:59;21.30;99.90
5631;DHT22;2837;50.990;7.124;2022-07-24T09:58:26;21.30;99.90
5631;DHT22;2837;50.990;7.124;2022-07-24T10:00:54;21.30;99.90
5631;DHT22;2837;50.990;7.124;2022-07-24T10:03:24;21.30;99.90
5631;DHT22;2837;50.990;7.124;2022-07-24T10:05:54;21.30;99.90
5631;DHT22;2837;50.990;7.124;2022-07-24T10:08:20;21.40;99.90
5631;DHT22;2837;50.990;7.124;2022-07-24T10:10:47;21.40;99.90
5631;DHT22;2837;50.990;7.124;2022-07-24T10:13:14;21.40;99.90
5631;DHT22;2837;50.990;7.124;2022-07-24T10:15:53;21.40;99.90
5631;DHT22;2837;50.990;7.124;2022-07-24T10:18:20;21.40;99.90
5631;DHT22;2837;50.990;7.124;2022-07-24T10:20:49;21.40;99.90
5631;DHT22;2837;50.990;7.124;2022-07-24T10:23:21;21.40;99.90
5631;DHT22;2837;50.990;7.124;2022-07-24T10:26:06;21.40;99.90
5631;DHT22;2837;50.990;7.124;2022-07-24T10:28:43;21.40;99.90
5631;DHT22;2837;50.990;7.124;2022-07-24T10:31:11;21.40;99.90
5631;DHT22;2837;50.990;7.124;2022-07-24T10:33:40;21.40;99.90
5631;DHT22;2837;50.990;7.124;2022-07-24T10:36:19;21.40;99.90
5631;DHT22;2837;50.990;7.124;2022-07-24T10:39:03;21.50;99.90
5631;DHT22;2837;50.990;7.124;2022-07-24T10:41:30;21.50;99.90
5631;DHT22;2837;50.990;7.124;2022-07-24T10:44:18;21.50;99.90
5631;DHT22;2837;50.990;7.124;2022-07-24T10:47:01;21.50;99.90
5631;DHT22;2837;50.990;7.124;2022-07-24T10:49:47;21.50;99.90
5631;DHT22;2837;50.990;7.124;2022-07-24T10:52:27;21.50;99.90
5631;DHT22;2837;50.990;7.124;2022-07-24T10:58:01;21.50;99.90
5631;DHT22;2837;50.990;7.124;2022-07-24T11:00:36;21.50;99.90
5631;DHT22;2837;50.990;7.124;2022-07-24T11:08:28;21.60;99.90
5631;DHT22;2837;50.990;7.124;2022-07-24T11:10:59;21.60;99.90
5631;DHT22;2837;50.990;7.124;2022-07-24T11:29:18;21.70;99.90
5631;DHT22;2837;50.990;7.124;2022-07-24T11:31:46;21.70;99.90
5631;DHT22;2837;50.990;7.124;2022-07-24T11:34:12;21.70;99.90
5631;DHT22;2837;50.990;7.124;2022-07-24T11:36:44;21.70;99.90
5631;DHT22;2837;50.990;7.124;2022-07-24T11:39:10;21.70;99.90
5631;DHT22;2837;50.990;7.124;2022-07-24T11:41:50;21.70;99.90
5631;DHT22;2837;50.990;7.124;2022-07-24T11:44:31;21.80;99.90
5631;DHT22;2837;50.990;7.124;2022-07-24T11:46:58;21.80;99.90
5631;DHT22;2837;50.990;7.124;2022-07-24T11:49:25;21.80;99.90
5631;DHT22;2837;50.990;7.124;2022-07-24T11:51:52;21.80;99.90
5631;DHT22;2837;50.990;7.124;2022-07-24T11:54:26;21.80;99.90
5631;DHT22;2837;50.990;7.124;2022-07-24T11:56:53;21.80;99.90
5631;DHT22;2837;50.990;7.124;2022-07-24T12:01:48;21.80;99.90
5631;DHT22;2837;50.990;7.124;2022-07-24T12:04:21;21.80;99.90
5631;DHT22;2837;50.990;7.124;2022-07-24T12:06:48;21.90;99.90
5631;DHT22;2837;50.990;7.124;2022-07-24T12:09:13;21.90;99.90
5631;DHT22;2837;50.990;7.124;2022-07-24T12:11:39;21.90;99.90
5631;DHT22;2837;50.990;7.124;2022-07-24T12:14:13;21.90;99.90
5631;DHT22;2837;50.990;7.124;2022-07-24T12:16:39;21.90;99.90
5631;DHT22;2837;50.990;7.124;2022-07-24T12:21:38;21.90;99.90
5631;DHT22;2837;50.990;7.124;2022-07-24T12:24:04;21.90;99.90
5631;DHT22;2837;50.990;7.124;2022-07-24T12:26:30;21.90;99.90
5631;DHT22;2837;50.990;7.124;2022-07-24T12:29:11;21.90;99.90
5631;DHT22;2837;50.990;7.124;2022-07-24T12:31:37;22.00;99.90
5631;DHT22;2837;50.990;7.124;2022-07-24T12:34:03;22.00;99.90
5631;DHT22;2837;50.990;7.124;2022-07-24T12:36:29;22.00;99.90
5631;DHT22;2837;50.990;7.124;2022-07-24T12:38:56;22.00;99.90
5631;DHT22;2837;50.990;7.124;2022-07-24T12:41:24;22.00;99.90
5631;DHT22;2837;50.990;7.124;2022-07-24T12:44:00;22.00;99.90
5631;DHT22;2837;50.990;7.124;2022-07-24T12:46:33;22.00;99.90
5631;DHT22;2837;50.990;7.124;2022-07-24T12:51:25;22.10;99.90
5631;DHT22;2837;50.990;7.124;2022-07-24T12:53:55;22.10;99.90
5631;DHT22;2837;50.990;7.124;2022-07-24T12:56:21;22.10;99.90
5631;DHT22;2837;50.990;7.124;2022-07-24T12:58:58;22.10;99.90
5631;DHT22;2837;50.990;7.124;2022-07-24T13:01:27;22.10;99.90
5631;DHT22;2837;50.990;7.124;2022-07-24T13:04:00;22.10;99.90
5631;DHT22;2837;50.990;7.124;2022-07-24T13:06:41;22.10;99.90
5631;DHT22;2837;50.990;7.124;2022-07-24T13:09:09;22.10;99.90
5631;DHT22;2837;50.990;7.124;2022-07-24T13:11:39;22.10;99.90
5631;DHT22;2837;50.990;7.124;2022-07-24T13:14:06;22.10;99.90
5631;DHT22;2837;50.990;7.124;2022-07-24T13:16:33;22.10;99.90
5631;DHT22;2837;50.990;7.124;2022-07-24T13:19:00;22.20;99.90
5631;DHT22;2837;50.990;7.124;2022-07-24T13:21:27;22.20;99.90
5631;DHT22;2837;50.990;7.124;2022-07-24T13:23:53;22.20;99.90
5631;DHT22;2837;50.990;7.124;2022-07-24T13:26:20;22.20;99.90
5631;DHT22;2837;50.990;7.124;2022-07-24T13:28:45;22.20;99.90
5631;DHT22;2837;50.990;7.124;2022-07-24T13:31:11;22.20;99.90
5631;DHT22;2837;50.990;7.124;2022-07-24T13:33:37;22.20;99.90
5631;DHT22;2837;50.990;7.124;2022-07-24T13:36:03;22.20;99.90
5631;DHT22;2837;50.990;7.124;2022-07-24T13:38:29;22.20;99.90
5631;DHT22;2837;50.990;7.124;2022-07-24T13:40:54;22.20;99.90
5631;DHT22;2837;50.990;7.124;2022-07-24T13:43:20;22.20;99.90
5631;DHT22;2837;50.990;7.124;2022-07-24T13:45:45;22.20;99.90
5631;DHT22;2837;50.990;7.124;2022-07-24T13:48:11;22.20;99.90
5631;DHT22;2837;50.990;7.124;2022-07-24T13:50:37;22.20;99.90
5631;DHT22;2837;50.990;7.124;2022-07-24T13:53:03;22.20;99.90
5631;DHT22;2837;50.990;7.124;2022-07-24T13:55:30;22.20;99.90
5631;DHT22;2837;50.990;7.124;2022-07-24T13:57:55;22.30;99.90
5631;DHT22;2837;50.990;7.124;2022-07-24T14:00:21;22.30;99.90
5631;DHT22;2837;50.990;7.124;2022-07-24T14:02:48;22.30;99.90
5631;DHT22;2837;50.990;7.124;2022-07-24T14:05:14;22.30;99.90
5631;DHT22;2837;50.990;7.124;2022-07-24T14:07:40;22.30;99.90
5631;DHT22;2837;50.990;7.124;2022-07-24T14:10:06;22.40;99.90
5631;DHT22;2837;50.990;7.124;2022-07-24T14:12:32;22.40;99.90
5631;DHT22;2837;50.990;7.124;2022-07-24T14:14:57;22.50;99.90
5631;DHT22;2837;50.990;7.124;2022-07-24T14:17:23;22.40;99.90
5631;DHT22;2837;50.990;7.124;2022-07-24T14:19:48;22.50;99.90
5631;DHT22;2837;50.990;7.124;2022-07-24T14:22:14;22.50;99.90
5631;DHT22;2837;50.990;7.124;2022-07-24T14:24:40;22.40;99.90
5631;DHT22;2837;50.990;7.124;2022-07-24T14:27:05;22.40;99.90
5631;DHT22;2837;50.990;7.124;2022-07-24T14:29:31;22.40;99.90
5631;DHT22;2837;50.990;7.124;2022-07-24T14:31:56;22.40;99.90
5631;DHT22;2837;50.990;7.124;2022-07-24T14:34:22;22.40;99.90
5631;DHT22;2837;50.990;7.124;2022-07-24T14:36:47;22.40;99.90
5631;DHT22;2837;50.990;7.124;2022-07-24T14:39:13;22.50;99.90
5631;DHT22;2837;50.990;7.124;2022-07-24T14:41:39;22.50;99.90
5631;DHT22;2837;50.990;7.124;2022-07-24T14:44:05;22.50;99.90
5631;DHT22;2837;50.990;7.124;2022-07-24T14:46:31;22.50;99.90
5631;DHT22;2837;50.990;7.124;2022-07-24T14:48:56;22.50;99.90
5631;DHT22;2837;50.990;7.124;2022-07-24T14:51:22;22.50;99.90
5631;DHT22;2837;50.990;7.124;2022-07-24T14:53:47;22.50;99.90
5631;DHT22;2837;50.990;7.124;2022-07-24T14:56:13;22.50;99.90
5631;DHT22;2837;50.990;7.124;2022-07-24T14:58:39;22.50;99.90
5631;DHT22;2837;50.990;7.124;2022-07-24T15:01:04;22.50;99.90
5631;DHT22;2837;50.990;7.124;2022-07-24T15:03:30;22.60;99.90
5631;DHT22;2837;50.990;7.124;2022-07-24T15:05:56;22.60;99.90
5631;DHT22;2837;50.990;7.124;2022-07-24T15:08:21;22.60;99.90
5631;DHT22;2837;50.990;7.124;2022-07-24T15:10:47;22.60;99.90
5631;DHT22;2837;50.990;7.124;2022-07-24T15:13:13;22.70;99.90
5631;DHT22;2837;50.990;7.124;2022-07-24T15:15:38;22.60;99.90
5631;DHT22;2837;50.990;7.124;2022-07-24T15:18:04;22.60;99.90
5631;DHT22;2837;50.990;7.124;2022-07-24T15:20:29;22.60;99.90
5631;DHT22;2837;50.990;7.124;2022-07-24T15:22:55;22.70;99.90
5631;DHT22;2837;50.990;7.124;2022-07-24T15:25:20;22.70;99.90
5631;DHT22;2837;50.990;7.124;2022-07-24T15:27:46;22.70;99.90
5631;DHT22;2837;50.990;7.124;2022-07-24T15:30:17;22.70;99.90
5631;DHT22;2837;50.990;7.124;2022-07-24T15:32:43;22.70;99.90
5631;DHT22;2837;50.990;7.124;2022-07-24T15:35:08;22.70;99.90
5631;DHT22;2837;50.990;7.124;2022-07-24T15:37:34;22.70;99.90
5631;DHT22;2837;50.990;7.124;2022-07-24T15:39:59;22.70;99.90
5631;DHT22;2837;50.990;7.124;2022-07-24T15:42:26;22.70;99.90
5631;DHT22;2837;50.990;7.124;2022-07-24T15:44:52;22.70;99.90
5631;DHT22;2837;50.990;7.124;2022-07-24T15:47:18;22.80;99.90
5631;DHT22;2837;50.990;7.124;2022-07-24T15:49:43;22.70;99.90
5631;DHT22;2837;50.990;7.124;2022-07-24T15:52:09;22.70;99.90
5631;DHT22;2837;50.990;7.124;2022-07-24T15:54:35;22.80;99.90
5631;DHT22;2837;50.990;7.124;2022-07-24T15:57:00;22.80;99.90
5631;DHT22;2837;50.990;7.124;2022-07-24T15:59:26;22.80;99.90
5631;DHT22;2837;50.990;7.124;2022-07-24T16:01:51;22.80;99.90
5631;DHT22;2837;50.990;7.124;2022-07-24T16:04:17;22.80;99.90
5631;DHT22;2837;50.990;7.124;2022-07-24T16:06:43;22.80;99.90
5631;DHT22;2837;50.990;7.124;2022-07-24T16:09:10;22.80;99.90
5631;DHT22;2837;50.990;7.124;2022-07-24T16:11:35;22.90;99.90
5631;DHT22;2837;50.990;7.124;2022-07-24T16:14:01;22.90;99.90
5631;DHT22;2837;50.990;7.124;2022-07-24T16:16:27;23.00;99.90
5631;DHT22;2837;50.990;7.124;2022-07-24T16:18:52;23.00;99.90
5631;DHT22;2837;50.990;7.124;2022-07-24T16:21:18;22.90;99.90
5631;DHT22;2837;50.990;7.124;2022-07-24T16:23:43;23.00;99.90
5631;DHT22;2837;50.990;7.124;2022-07-24T16:26:09;23.00;99.90
5631;DHT22;2837;50.990;7.124;2022-07-24T16:28:35;22.90;99.90
5631;DHT22;2837;50.990;7.124;2022-07-24T16:31:00;23.00;99.90
5631;DHT22;2837;50.990;7.124;2022-07-24T16:33:27;23.00;99.90
5631;DHT22;2837;50.990;7.124;2022-07-24T16:35:53;23.00;99.90
5631;DHT22;2837;50.990;7.124;2022-07-24T16:38:18;23.00;99.90
5631;DHT22;2837;50.990;7.124;2022-07-24T16:40:44;23.00;99.90
5631;DHT22;2837;50.990;7.124;2022-07-24T16:43:09;23.00;99.90
5631;DHT22;2837;50.990;7.124;2022-07-24T16:45:35;23.00;99.90
5631;DHT22;2837;50.990;7.124;2022-07-24T16:48:01;23.00;99.90
5631;DHT22;2837;50.990;7.124;2022-07-24T16:50:26;23.00;99.90
5631;DHT22;2837;50.990;7.124;2022-07-24T16:52:52;23.00;99.90
5631;DHT22;2837;50.990;7.124;2022-07-24T16:55:17;23.00;99.90
5631;DHT22;2837;50.990;7.124;2022-07-24T16:57:43;23.10;99.90
5631;DHT22;2837;50.990;7.124;2022-07-24T17:00:09;23.10;99.90
5631;DHT22;2837;50.990;7.124;2022-07-24T17:02:38;23.00;99.90
5631;DHT22;2837;50.990;7.124;2022-07-24T17:05:04;23.00;99.90
5631;DHT22;2837;50.990;7.124;2022-07-24T17:07:30;23.10;99.90
5631;DHT22;2837;50.990;7.124;2022-07-24T17:09:55;23.10;99.90
5631;DHT22;2837;50.990;7.124;2022-07-24T17:12:21;23.10;99.90
5631;DHT22;2837;50.990;7.124;2022-07-24T17:14:46;23.10;99.90
5631;DHT22;2837;50.990;7.124;2022-07-24T17:17:12;23.10;99.90
5631;DHT22;2837;50.990;7.124;2022-07-24T17:19:38;23.10;99.90
5631;DHT22;2837;50.990;7.124;2022-07-24T17:24:44;23.10;99.90
5631;DHT22;2837;50.990;7.124;2022-07-24T17:27:09;23.10;99.90
5631;DHT22;2837;50.990;7.124;2022-07-24T17:29:35;23.10;99.90
5631;DHT22;2837;50.990;7.124;2022-07-24T17:32:00;23.10;99.90
5631;DHT22;2837;50.990;7.124;2022-07-24T17:34:26;23.10;99.90
5631;DHT22;2837;50.990;7.124;2022-07-24T17:36:51;23.10;99.90
5631;DHT22;2837;50.990;7.124;2022-07-24T17:39:17;23.10;99.90
5631;DHT22;2837;50.990;7.124;2022-07-24T17:41:42;23.10;99.90
5631;DHT22;2837;50.990;7.124;2022-07-24T17:44:08;23.10;99.90
5631;DHT22;2837;50.990;7.124;2022-07-24T17:46:34;23.10;99.90
5631;DHT22;2837;50.990;7.124;2022-07-24T17:48:59;23.10;99.90
5631;DHT22;2837;50.990;7.124;2022-07-24T17:51:25;23.10;99.90
5631;DHT22;2837;50.990;7.124;2022-07-24T17:53:50;23.10;99.90
5631;DHT22;2837;50.990;7.124;2022-07-24T17:56:16;23.10;99.90
5631;DHT22;2837;50.990;7.124;2022-07-24T17:58:42;23.00;99.90
5631;DHT22;2837;50.990;7.124;2022-07-24T18:01:07;23.10;99.90
5631;DHT22;2837;50.990;7.124;2022-07-24T18:03:33;23.10;99.90
5631;DHT22;2837;50.990;7.124;2022-07-24T18:05:58;23.10;99.90
5631;DHT22;2837;50.990;7.124;2022-07-24T18:08:24;23.10;99.90
5631;DHT22;2837;50.990;7.124;2022-07-24T18:10:49;23.00;99.90
5631;DHT22;2837;50.990;7.124;2022-07-24T18:13:15;23.00;99.90
5631;DHT22;2837;50.990;7.124;2022-07-24T18:15:41;23.00;99.90
5631;DHT22;2837;50.990;7.124;2022-07-24T18:18:06;23.00;99.90
5631;DHT22;2837;50.990;7.124;2022-07-24T18:20:32;23.00;99.90
5631;DHT22;2837;50.990;7.124;2022-07-24T18:22:58;23.00;99.90
5631;DHT22;2837;50.990;7.124;2022-07-24T18:25:23;23.00;99.90
5631;DHT22;2837;50.990;7.124;2022-07-24T18:27:49;23.00;99.90
5631;DHT22;2837;50.990;7.124;2022-07-24T18:30:15;23.00;99.90
5631;DHT22;2837;50.990;7.124;2022-07-24T18:32:45;22.90;99.90
5631;DHT22;2837;50.990;7.124;2022-07-24T18:35:11;22.90;99.90
5631;DHT22;2837;50.990;7.124;2022-07-24T18:37:36;22.90;99.90
5631;DHT22;2837;50.990;7.124;2022-07-24T18:40:03;22.90;99.90
5631;DHT22;2837;50.990;7.124;2022-07-24T18:42:29;22.90;99.90
5631;DHT22;2837;50.990;7.124;2022-07-24T18:44:54;22.90;99.90
5631;DHT22;2837;50.990;7.124;2022-07-24T18:47:20;22.80;99.90
5631;DHT22;2837;50.990;7.124;2022-07-24T18:49:46;22.80;99.90
5631;DHT22;2837;50.990;7.124;2022-07-24T18:52:12;22.80;99.90
5631;DHT22;2837;50.990;7.124;2022-07-24T18:54:38;22.80;99.90
5631;DHT22;2837;50.990;7.124;2022-07-24T18:57:04;22.80;99.90
5631;DHT22;2837;50.990;7.124;2022-07-24T18:59:30;22.80;99.90
5631;DHT22;2837;50.990;7.124;2022-07-24T19:01:55;22.80;99.90
5631;DHT22;2837;50.990;7.124;2022-07-24T19:04:22;22.70;99.90
5631;DHT22;2837;50.990;7.124;2022-07-24T19:06:48;22.80;99.90
5631;DHT22;2837;50.990;7.124;2022-07-24T19:09:15;22.70;99.90
5631;DHT22;2837;50.990;7.124;2022-07-24T19:11:41;22.70;99.90
5631;DHT22;2837;50.990;7.124;2022-07-24T19:14:06;22.70;99.90
5631;DHT22;2837;50.990;7.124;2022-07-24T19:16:32;22.70;99.90
5631;DHT22;2837;50.990;7.124;2022-07-24T19:18:58;22.70;99.90
5631;DHT22;2837;50.990;7.124;2022-07-24T19:21:24;22.60;99.90
5631;DHT22;2837;50.990;7.124;2022-07-24T19:23:49;22.60;99.90
5631;DHT22;2837;50.990;7.124;2022-07-24T19:26:15;22.60;99.90
5631;DHT22;2837;50.990;7.124;2022-07-24T19:28:41;22.60;99.90
5631;DHT22;2837;50.990;7.124;2022-07-24T19:31:07;22.60;99.90
5631;DHT22;2837;50.990;7.124;2022-07-24T19:33:32;22.60;99.90
5631;DHT22;2837;50.990;7.124;2022-07-24T19:35:58;22.60;99.90
5631;DHT22;2837;50.990;7.124;2022-07-24T19:38:24;22.60;99.90
5631;DHT22;2837;50.990;7.124;2022-07-24T19:40:49;22.60;99.90
5631;DHT22;2837;50.990;7.124;2022-07-24T19:43:15;22.60;99.90
5631;DHT22;2837;50.990;7.124;2022-07-24T19:45:41;22.60;99.90
5631;DHT22;2837;50.990;7.124;2022-07-24T19:48:06;22.60;99.90
5631;DHT22;2837;50.990;7.124;2022-07-24T19:50:37;22.50;99.90
5631;DHT22;2837;50.990;7.124;2022-07-24T19:53:06;22.50;99.90
5631;DHT22;2837;50.990;7.124;2022-07-24T19:55:31;22.50;99.90
5631;DHT22;2837;50.990;7.124;2022-07-24T19:57:57;22.50;99.90
5631;DHT22;2837;50.990;7.124;2022-07-24T20:00:22;22.50;99.90
5631;DHT22;2837;50.990;7.124;2022-07-24T20:02:48;22.50;99.90
5631;DHT22;2837;50.990;7.124;2022-07-24T20:05:14;22.50;99.90
5631;DHT22;2837;50.990;7.124;2022-07-24T20:07:39;22.50;99.90
5631;DHT22;2837;50.990;7.124;2022-07-24T20:10:05;22.40;99.90
5631;DHT22;2837;50.990;7.124;2022-07-24T20:12:31;22.40;99.90
5631;DHT22;2837;50.990;7.124;2022-07-24T20:14:57;22.40;99.90
5631;DHT22;2837;50.990;7.124;2022-07-24T20:17:22;22.40;99.90
5631;DHT22;2837;50.990;7.124;2022-07-24T20:19:48;22.40;99.90
5631;DHT22;2837;50.990;7.124;2022-07-24T20:22:14;22.40;99.90
5631;DHT22;2837;50.990;7.124;2022-07-24T20:24:39;22.40;99.90
5631;DHT22;2837;50.990;7.124;2022-07-24T20:27:05;22.40;99.90
5631;DHT22;2837;50.990;7.124;2022-07-24T20:29:31;22.40;99.90
5631;DHT22;2837;50.990;7.124;2022-07-24T20:31:56;22.30;99.90
5631;DHT22;2837;50.990;7.124;2022-07-24T20:34:22;22.30;99.90
5631;DHT22;2837;50.990;7.124;2022-07-24T20:36:48;22.30;99.90
5631;DHT22;2837;50.990;7.124;2022-07-24T20:39:14;22.30;99.90
5631;DHT22;2837;50.990;7.124;2022-07-24T20:41:39;22.30;99.90
5631;DHT22;2837;50.990;7.124;2022-07-24T20:44:05;22.30;99.90
5631;DHT22;2837;50.990;7.124;2022-07-24T20:46:31;22.30;99.90
5631;DHT22;2837;50.990;7.124;2022-07-24T20:48:56;22.30;99.90
5631;DHT22;2837;50.990;7.124;2022-07-24T20:51:22;22.30;99.90
5631;DHT22;2837;50.990;7.124;2022-07-24T20:53:47;22.30;99.90
5631;DHT22;2837;50.990;7.124;2022-07-24T20:56:13;22.30;99.90
5631;DHT22;2837;50.990;7.124;2022-07-24T20:58:38;22.30;99.90
